sensor_id;sensor_type;location;lat;lon;timestamp;pressure;altitude;pressure_sealevel;temperature;humidity
55759;BME280;41678;52.126;20.664;2023-03-18T00:00:30;100804.78;;;2.85;69.27
55759;BME280;41678;52.126;20.664;2023-03-18T00:06:01;100801.25;;;2.83;69.20
55759;BME280;41678;52.126;20.664;2023-03-18T00:11:22;100799.50;;;2.82;69.67
55759;BME280;41678;52.126;20.664;2023-03-18T00:16:41;100802.38;;;2.91;69.37
55759;BME280;41678;52.126;20.664;2023-03-18T00:22:01;100783.53;;;2.69;68.91
55759;BME280;41678;52.126;20.664;2023-03-18T00:27:20;100785.75;;;2.86;68.87
55759;BME280;41678;52.126;20.664;2023-03-18T00:32:42;100775.25;;;2.83;68.72
55759;BME280;41678;52.126;20.664;2023-03-18T00:38:02;100781.34;;;2.83;69.12
55759;BME280;41678;52.126;20.664;2023-03-18T00:43:23;100765.69;;;2.82;68.89
55759;BME280;41678;52.126;20.664;2023-03-18T00:48:47;100762.94;;;2.76;68.51
55759;BME280;41678;52.126;20.664;2023-03-18T00:54:09;100752.59;;;2.79;69.23
55759;BME280;41678;52.126;20.664;2023-03-18T00:59:31;100749.13;;;2.78;69.29
55759;BME280;41678;52.126;20.664;2023-03-18T01:04:51;100748.94;;;2.72;69.00
55759;BME280;41678;52.126;20.664;2023-03-18T01:10:12;100733.28;;;2.71;68.68
55759;BME280;41678;52.126;20.664;2023-03-18T01:15:33;100739.63;;;2.80;68.45
55759;BME280;41678;52.126;20.664;2023-03-18T01:20:54;100726.69;;;2.82;69.15
55759;BME280;41678;52.126;20.664;2023-03-18T01:26:15;100732.47;;;2.72;68.73
55759;BME280;41678;52.126;20.664;2023-03-18T01:31:37;100726.34;;;2.69;68.51
55759;BME280;41678;52.126;20.664;2023-03-18T01:37:03;100733.09;;;2.63;68.79
55759;BME280;41678;52.126;20.664;2023-03-18T01:42:26;100733.94;;;2.62;68.57
55759;BME280;41678;52.126;20.664;2023-03-18T01:47:48;100726.09;;;2.60;68.14
55759;BME280;41678;52.126;20.664;2023-03-18T01:53:15;100718.19;;;2.57;68.43
55759;BME280;41678;52.126;20.664;2023-03-18T01:58:39;100729.63;;;2.62;68.08
55759;BME280;41678;52.126;20.664;2023-03-18T02:04:02;100720.00;;;2.60;68.25
55759;BME280;41678;52.126;20.664;2023-03-18T02:09:22;100712.25;;;2.61;67.88
55759;BME280;41678;52.126;20.664;2023-03-18T02:14:43;100702.38;;;2.49;68.06
55759;BME280;41678;52.126;20.664;2023-03-18T02:25:41;100713.75;;;2.53;68.04
55759;BME280;41678;52.126;20.664;2023-03-18T02:31:09;100709.31;;;2.49;67.96
55759;BME280;41678;52.126;20.664;2023-03-18T02:36:30;100706.88;;;2.55;67.56
55759;BME280;41678;52.126;20.664;2023-03-18T02:41:51;100704.06;;;2.47;68.07
55759;BME280;41678;52.126;20.664;2023-03-18T02:47:18;100703.44;;;2.56;67.85
55759;BME280;41678;52.126;20.664;2023-03-18T02:52:39;100697.94;;;2.45;68.12
55759;BME280;41678;52.126;20.664;2023-03-18T02:58:00;100691.91;;;2.46;68.27
55759;BME280;41678;52.126;20.664;2023-03-18T03:03:20;100682.22;;;2.40;67.36
55759;BME280;41678;52.126;20.664;2023-03-18T03:08:40;100683.38;;;2.50;67.93
55759;BME280;41678;52.126;20.664;2023-03-18T03:14:01;100680.44;;;2.39;67.93
55759;BME280;41678;52.126;20.664;2023-03-18T03:19:25;100685.56;;;2.36;68.01
55759;BME280;41678;52.126;20.664;2023-03-18T03:24:45;100676.84;;;2.34;67.88
55759;BME280;41678;52.126;20.664;2023-03-18T03:30:10;100688.84;;;2.29;67.54
55759;BME280;41678;52.126;20.664;2023-03-18T03:35:31;100694.13;;;2.32;67.81
55759;BME280;41678;52.126;20.664;2023-03-18T03:40:51;100691.53;;;2.32;67.64
55759;BME280;41678;52.126;20.664;2023-03-18T03:46:12;100691.38;;;2.28;67.86
55759;BME280;41678;52.126;20.664;2023-03-18T03:51:32;100698.88;;;2.17;67.88
55759;BME280;41678;52.126;20.664;2023-03-18T03:56:51;100694.88;;;2.28;67.56
55759;BME280;41678;52.126;20.664;2023-03-18T04:02:12;100685.28;;;2.27;67.76
55759;BME280;41678;52.126;20.664;2023-03-18T04:07:32;100688.47;;;2.17;67.81
55759;BME280;41678;52.126;20.664;2023-03-18T04:12:52;100703.22;;;2.18;67.33
55759;BME280;41678;52.126;20.664;2023-03-18T04:18:12;100702.22;;;2.12;67.74
55759;BME280;41678;52.126;20.664;2023-03-18T04:23:34;100711.66;;;2.10;67.63
55759;BME280;41678;52.126;20.664;2023-03-18T04:28:54;100701.31;;;2.12;67.76
55759;BME280;41678;52.126;20.664;2023-03-18T04:34:15;100707.50;;;2.16;67.85
55759;BME280;41678;52.126;20.664;2023-03-18T04:39:36;100712.88;;;2.22;67.34
55759;BME280;41678;52.126;20.664;2023-03-18T04:44:56;100701.19;;;2.07;67.88
55759;BME280;41678;52.126;20.664;2023-03-18T04:50:16;100706.28;;;2.04;68.03
55759;BME280;41678;52.126;20.664;2023-03-18T04:55:38;100705.59;;;2.10;68.20
55759;BME280;41678;52.126;20.664;2023-03-18T05:01:00;100702.78;;;2.02;67.99
55759;BME280;41678;52.126;20.664;2023-03-18T05:06:29;100705.41;;;2.04;67.44
55759;BME280;41678;52.126;20.664;2023-03-18T05:11:55;100703.63;;;2.01;67.52
55759;BME280;41678;52.126;20.664;2023-03-18T05:17:20;100694.78;;;1.96;67.71
55759;BME280;41678;52.126;20.664;2023-03-18T05:22:48;100693.22;;;2.01;67.67
55759;BME280;41678;52.126;20.664;2023-03-18T05:28:17;100696.66;;;2.00;67.53
55759;BME280;41678;52.126;20.664;2023-03-18T05:33:45;100692.56;;;2.08;68.01
55759;BME280;41678;52.126;20.664;2023-03-18T05:39:07;100693.22;;;2.01;67.83
55759;BME280;41678;52.126;20.664;2023-03-18T05:44:27;100694.28;;;2.08;67.46
55759;BME280;41678;52.126;20.664;2023-03-18T05:49:51;100708.44;;;2.19;68.08
55759;BME280;41678;52.126;20.664;2023-03-18T05:55:20;100692.00;;;2.19;67.88
55759;BME280;41678;52.126;20.664;2023-03-18T06:00:41;100697.28;;;2.22;67.95
55759;BME280;41678;52.126;20.664;2023-03-18T06:06:02;100698.50;;;2.35;67.98
55759;BME280;41678;52.126;20.664;2023-03-18T06:11:23;100702.91;;;2.37;67.74
55759;BME280;41678;52.126;20.664;2023-03-18T06:16:44;100693.56;;;2.44;67.95
55759;BME280;41678;52.126;20.664;2023-03-18T06:22:05;100681.59;;;2.49;68.13
55759;BME280;41678;52.126;20.664;2023-03-18T06:27:24;100682.63;;;2.56;68.31
55759;BME280;41678;52.126;20.664;2023-03-18T06:32:48;100697.59;;;2.65;67.99
55759;BME280;41678;52.126;20.664;2023-03-18T06:38:09;100686.50;;;2.71;67.91
55759;BME280;41678;52.126;20.664;2023-03-18T06:43:32;100695.41;;;2.79;68.10
55759;BME280;41678;52.126;20.664;2023-03-18T06:48:53;100703.41;;;2.87;68.29
55759;BME280;41678;52.126;20.664;2023-03-18T06:54:18;100695.81;;;2.94;68.08
55759;BME280;41678;52.126;20.664;2023-03-18T06:59:39;100710.06;;;3.09;68.16
55759;BME280;41678;52.126;20.664;2023-03-18T07:05:00;100702.50;;;3.20;68.26
55759;BME280;41678;52.126;20.664;2023-03-18T07:10:24;100708.16;;;3.38;67.46
55759;BME280;41678;52.126;20.664;2023-03-18T07:15:49;100709.28;;;3.48;67.71
55759;BME280;41678;52.126;20.664;2023-03-18T07:21:09;100713.91;;;3.60;68.00
55759;BME280;41678;52.126;20.664;2023-03-18T07:26:30;100728.16;;;3.76;66.34
55759;BME280;41678;52.126;20.664;2023-03-18T07:31:50;100724.22;;;3.94;66.51
55759;BME280;41678;52.126;20.664;2023-03-18T07:37:09;100728.09;;;4.11;65.78
55759;BME280;41678;52.126;20.664;2023-03-18T07:42:30;100724.97;;;4.28;65.64
55759;BME280;41678;52.126;20.664;2023-03-18T07:47:50;100728.66;;;4.38;65.36
55759;BME280;41678;52.126;20.664;2023-03-18T07:53:09;100727.31;;;4.57;65.11
55759;BME280;41678;52.126;20.664;2023-03-18T07:58:30;100726.78;;;4.75;65.11
55759;BME280;41678;52.126;20.664;2023-03-18T08:03:49;100729.00;;;5.01;63.66
55759;BME280;41678;52.126;20.664;2023-03-18T08:09:09;100727.56;;;5.19;63.57
55759;BME280;41678;52.126;20.664;2023-03-18T08:14:29;100715.75;;;5.39;62.99
55759;BME280;41678;52.126;20.664;2023-03-18T08:19:50;100716.97;;;5.60;63.63
55759;BME280;41678;52.126;20.664;2023-03-18T08:25:10;100714.66;;;5.82;63.11
55759;BME280;41678;52.126;20.664;2023-03-18T08:30:30;100707.03;;;5.96;63.16
55759;BME280;41678;52.126;20.664;2023-03-18T08:35:50;100715.16;;;6.15;63.02
55759;BME280;41678;52.126;20.664;2023-03-18T08:41:10;100702.41;;;6.40;61.61
55759;BME280;41678;52.126;20.664;2023-03-18T08:46:29;100699.09;;;6.53;61.17
55759;BME280;41678;52.126;20.664;2023-03-18T08:51:50;100699.19;;;6.65;62.20
55759;BME280;41678;52.126;20.664;2023-03-18T08:57:11;100687.16;;;6.80;61.90
55759;BME280;41678;52.126;20.664;2023-03-18T09:02:31;100680.38;;;6.98;61.52
55759;BME280;41678;52.126;20.664;2023-03-18T09:07:52;100674.34;;;7.09;61.45
55759;BME280;41678;52.126;20.664;2023-03-18T09:13:12;100681.47;;;7.28;60.85
55759;BME280;41678;52.126;20.664;2023-03-18T09:18:32;100677.22;;;7.39;59.53
55759;BME280;41678;52.126;20.664;2023-03-18T09:23:53;100665.88;;;7.42;60.26
55759;BME280;41678;52.126;20.664;2023-03-18T09:29:12;100668.59;;;7.56;59.48
55759;BME280;41678;52.126;20.664;2023-03-18T09:34:33;100666.03;;;7.65;58.93
55759;BME280;41678;52.126;20.664;2023-03-18T09:39:52;100668.78;;;7.82;57.83
55759;BME280;41678;52.126;20.664;2023-03-18T09:56:34;100670.66;;;8.10;57.97
55759;BME280;41678;52.126;20.664;2023-03-18T10:01:55;100663.69;;;8.15;58.09
55759;BME280;41678;52.126;20.664;2023-03-18T10:07:17;100670.75;;;8.27;56.56
55759;BME280;41678;52.126;20.664;2023-03-18T10:12:42;100660.25;;;8.31;57.32
55759;BME280;41678;52.126;20.664;2023-03-18T10:18:15;100648.06;;;8.43;58.64
55759;BME280;41678;52.126;20.664;2023-03-18T10:23:46;100647.25;;;8.59;57.82
55759;BME280;41678;52.126;20.664;2023-03-18T10:40:23;100628.06;;;8.96;58.60
55759;BME280;41678;52.126;20.664;2023-03-18T10:45:44;100633.31;;;9.07;56.93
55759;BME280;41678;52.126;20.664;2023-03-18T10:51:15;100634.22;;;9.12;58.02
55759;BME280;41678;52.126;20.664;2023-03-18T10:56:37;100614.03;;;9.16;56.54
55759;BME280;41678;52.126;20.664;2023-03-18T11:02:13;100610.53;;;9.31;56.30
55759;BME280;41678;52.126;20.664;2023-03-18T11:07:57;100608.75;;;9.39;56.60
55759;BME280;41678;52.126;20.664;2023-03-18T11:13:19;100607.00;;;9.46;56.68
55759;BME280;41678;52.126;20.664;2023-03-18T11:18:43;100607.00;;;9.54;56.51
55759;BME280;41678;52.126;20.664;2023-03-18T11:24:19;100593.84;;;9.55;56.66
55759;BME280;41678;52.126;20.664;2023-03-18T11:29:58;100594.69;;;9.65;55.57
55759;BME280;41678;52.126;20.664;2023-03-18T11:35:24;100586.78;;;9.74;55.46
55759;BME280;41678;52.126;20.664;2023-03-18T11:40:49;100595.53;;;9.83;55.76
55759;BME280;41678;52.126;20.664;2023-03-18T11:46:11;100578.84;;;9.84;56.32
55759;BME280;41678;52.126;20.664;2023-03-18T12:08:18;100567.38;;;10.06;56.25
55759;BME280;41678;52.126;20.664;2023-03-18T12:53:03;100532.91;;;10.55;54.57
55759;BME280;41678;52.126;20.664;2023-03-18T12:58:31;100531.97;;;10.60;54.96
55759;BME280;41678;52.126;20.664;2023-03-18T13:04:00;100523.25;;;10.55;53.37
55759;BME280;41678;52.126;20.664;2023-03-18T13:09:28;100522.31;;;10.61;54.26
55759;BME280;41678;52.126;20.664;2023-03-18T13:14:59;100511.78;;;10.61;53.44
55759;BME280;41678;52.126;20.664;2023-03-18T13:20:27;100523.16;;;10.66;53.65
55759;BME280;41678;52.126;20.664;2023-03-18T13:42:32;100500.41;;;10.59;53.80
55759;BME280;41678;52.126;20.664;2023-03-18T13:48:11;100502.16;;;10.61;54.50
55759;BME280;41678;52.126;20.664;2023-03-18T13:53:33;100494.25;;;10.61;55.27
55759;BME280;41678;52.126;20.664;2023-03-18T13:59:02;100487.16;;;10.67;55.46
55759;BME280;41678;52.126;20.664;2023-03-18T14:04:48;100482.72;;;10.72;56.40
55759;BME280;41678;52.126;20.664;2023-03-18T14:10:15;100451.16;;;10.67;55.70
55759;BME280;41678;52.126;20.664;2023-03-18T14:15:42;100477.41;;;10.75;55.45
55759;BME280;41678;52.126;20.664;2023-03-18T14:21:05;100474.75;;;10.80;55.86
55759;BME280;41678;52.126;20.664;2023-03-18T14:33:03;100462.50;;;10.75;55.26
55759;BME280;41678;52.126;20.664;2023-03-18T14:38:34;100460.72;;;10.79;55.50
55759;BME280;41678;52.126;20.664;2023-03-18T14:44:20;100455.50;;;10.73;55.68
55759;BME280;41678;52.126;20.664;2023-03-18T14:49:46;100447.66;;;10.67;55.70
55759;BME280;41678;52.126;20.664;2023-03-18T14:55:27;100431.94;;;10.59;55.01
55759;BME280;41678;52.126;20.664;2023-03-18T15:00:55;100438.94;;;10.58;56.20
55759;BME280;41678;52.126;20.664;2023-03-18T15:06:21;100449.50;;;10.55;56.74
55759;BME280;41678;52.126;20.664;2023-03-18T15:11:43;100451.31;;;10.50;56.15
55759;BME280;41678;52.126;20.664;2023-03-18T15:17:13;100453.94;;;10.52;56.62
55759;BME280;41678;52.126;20.664;2023-03-18T15:22:33;100444.28;;;10.52;57.56
55759;BME280;41678;52.126;20.664;2023-03-18T15:27:53;100449.66;;;10.37;56.30
55759;BME280;41678;52.126;20.664;2023-03-18T15:33:18;100444.34;;;10.40;57.38
55759;BME280;41678;52.126;20.664;2023-03-18T15:38:44;100452.28;;;10.37;57.54
55759;BME280;41678;52.126;20.664;2023-03-18T15:44:13;100445.25;;;10.37;57.83
55759;BME280;41678;52.126;20.664;2023-03-18T15:49:44;100455.78;;;10.34;57.65
55759;BME280;41678;52.126;20.664;2023-03-18T15:55:34;100448.84;;;10.25;57.74
55759;BME280;41678;52.126;20.664;2023-03-18T16:00:55;100450.63;;;10.21;57.65
55759;BME280;41678;52.126;20.664;2023-03-18T16:06:15;100455.91;;;10.18;57.82
55759;BME280;41678;52.126;20.664;2023-03-18T16:11:36;100464.72;;;10.14;58.64
55759;BME280;41678;52.126;20.664;2023-03-18T16:16:56;100463.88;;;10.07;58.44
55759;BME280;41678;52.126;20.664;2023-03-18T16:22:15;100470.03;;;10.05;59.21
55759;BME280;41678;52.126;20.664;2023-03-18T16:27:37;100474.41;;;10.06;59.53
55759;BME280;41678;52.126;20.664;2023-03-18T16:32:58;100476.28;;;9.90;58.14
55759;BME280;41678;52.126;20.664;2023-03-18T16:38:17;100478.91;;;9.90;59.01
55759;BME280;41678;52.126;20.664;2023-03-18T16:43:38;100478.91;;;9.84;59.05
55759;BME280;41678;52.126;20.664;2023-03-18T16:48:58;100481.63;;;9.74;58.80
55759;BME280;41678;52.126;20.664;2023-03-18T16:54:21;100482.50;;;9.72;59.30
55759;BME280;41678;52.126;20.664;2023-03-18T16:59:45;100479.88;;;9.70;60.39
55759;BME280;41678;52.126;20.664;2023-03-18T17:05:08;100485.19;;;9.61;59.97
55759;BME280;41678;52.126;20.664;2023-03-18T17:10:32;100490.44;;;9.55;59.86
55759;BME280;41678;52.126;20.664;2023-03-18T17:15:53;100503.63;;;9.47;59.87
55759;BME280;41678;52.126;20.664;2023-03-18T17:21:12;100496.66;;;9.40;59.60
55759;BME280;41678;52.126;20.664;2023-03-18T17:26:32;100493.19;;;9.28;59.65
55759;BME280;41678;52.126;20.664;2023-03-18T17:31:52;100498.41;;;9.31;60.44
55759;BME280;41678;52.126;20.664;2023-03-18T17:37:13;100482.69;;;9.16;60.88
55759;BME280;41678;52.126;20.664;2023-03-18T17:42:33;100488.84;;;9.16;60.77
55759;BME280;41678;52.126;20.664;2023-03-18T17:48:12;100499.34;;;9.13;61.15
55759;BME280;41678;52.126;20.664;2023-03-18T17:58:55;100484.50;;;8.98;61.53
55759;BME280;41678;52.126;20.664;2023-03-18T18:04:20;100492.38;;;8.90;61.44
55759;BME280;41678;52.126;20.664;2023-03-18T18:09:41;100488.03;;;8.83;60.98
55759;BME280;41678;52.126;20.664;2023-03-18T18:15:00;100482.75;;;8.77;61.73
55759;BME280;41678;52.126;20.664;2023-03-18T18:20:20;100481.03;;;8.70;61.70
55759;BME280;41678;52.126;20.664;2023-03-18T18:25:40;100476.66;;;8.59;61.15
55759;BME280;41678;52.126;20.664;2023-03-18T18:31:02;100477.53;;;8.54;61.48
55759;BME280;41678;52.126;20.664;2023-03-18T18:36:21;100479.25;;;8.41;61.22
55759;BME280;41678;52.126;20.664;2023-03-18T18:41:46;100485.38;;;8.43;61.99
55759;BME280;41678;52.126;20.664;2023-03-18T18:47:18;100480.13;;;8.32;62.31
55759;BME280;41678;52.126;20.664;2023-03-18T18:52:38;100490.59;;;8.27;61.88
55759;BME280;41678;52.126;20.664;2023-03-18T18:57:58;100492.34;;;8.22;62.30
55759;BME280;41678;52.126;20.664;2023-03-18T19:03:20;100494.09;;;8.14;62.28
55759;BME280;41678;52.126;20.664;2023-03-18T19:08:39;100494.94;;;8.08;62.32
55759;BME280;41678;52.126;20.664;2023-03-18T19:14:19;100488.84;;;8.04;62.54
55759;BME280;41678;52.126;20.664;2023-03-18T19:19:41;100478.34;;;8.00;63.31
55759;BME280;41678;52.126;20.664;2023-03-18T19:25:02;100494.91;;;7.91;62.68
55759;BME280;41678;52.126;20.664;2023-03-18T19:30:23;100485.28;;;7.85;62.70
55759;BME280;41678;52.126;20.664;2023-03-18T19:35:43;100483.53;;;7.83;62.73
55759;BME280;41678;52.126;20.664;2023-03-18T19:41:03;100494.00;;;7.83;62.71
55759;BME280;41678;52.126;20.664;2023-03-18T19:46:37;100494.84;;;7.74;62.34
55759;BME280;41678;52.126;20.664;2023-03-18T19:51:57;100496.59;;;7.78;62.64
55759;BME280;41678;52.126;20.664;2023-03-18T20:02:38;100488.72;;;7.67;62.13
55759;BME280;41678;52.126;20.664;2023-03-18T20:07:58;100479.09;;;7.61;62.84
55759;BME280;41678;52.126;20.664;2023-03-18T20:13:17;100485.19;;;7.60;63.28
55759;BME280;41678;52.126;20.664;2023-03-18T20:18:37;100479.09;;;7.60;63.49
55759;BME280;41678;52.126;20.664;2023-03-18T20:24:04;100482.53;;;7.53;63.37
55759;BME280;41678;52.126;20.664;2023-03-18T20:29:27;100484.25;;;7.49;63.58
55759;BME280;41678;52.126;20.664;2023-03-18T20:34:47;100480.78;;;7.45;64.07
55759;BME280;41678;52.126;20.664;2023-03-18T20:40:36;100487.75;;;7.42;63.97
55759;BME280;41678;52.126;20.664;2023-03-18T20:45:57;100480.69;;;7.28;64.50
55759;BME280;41678;52.126;20.664;2023-03-18T20:51:26;100491.13;;;7.27;64.61
55759;BME280;41678;52.126;20.664;2023-03-18T20:56:48;100482.34;;;7.14;64.13
55759;BME280;41678;52.126;20.664;2023-03-18T21:02:31;100484.94;;;7.09;64.57
55759;BME280;41678;52.126;20.664;2023-03-18T21:07:52;100478.78;;;7.02;64.88
55759;BME280;41678;52.126;20.664;2023-03-18T21:13:15;100484.03;;;7.01;65.04
55759;BME280;41678;52.126;20.664;2023-03-18T21:18:35;100482.25;;;6.92;64.64
55759;BME280;41678;52.126;20.664;2023-03-18T21:23:55;100478.72;;;6.88;65.13
55759;BME280;41678;52.126;20.664;2023-03-18T21:29:14;100474.25;;;6.75;65.03
55759;BME280;41678;52.126;20.664;2023-03-18T21:34:35;100468.09;;;6.68;64.80
55759;BME280;41678;52.126;20.664;2023-03-18T21:39:55;100474.25;;;6.72;64.76
55759;BME280;41678;52.126;20.664;2023-03-18T21:45:17;100477.72;;;6.68;64.50
55759;BME280;41678;52.126;20.664;2023-03-18T21:50:38;100472.41;;;6.61;64.15
55759;BME280;41678;52.126;20.664;2023-03-18T21:55:58;100466.25;;;6.55;64.60
55759;BME280;41678;52.126;20.664;2023-03-18T22:01:19;100473.25;;;6.59;64.21
55759;BME280;41678;52.126;20.664;2023-03-18T22:06:39;100467.97;;;6.52;64.85
55759;BME280;41678;52.126;20.664;2023-03-18T22:11:59;100466.22;;;6.50;64.56
55759;BME280;41678;52.126;20.664;2023-03-18T22:17:23;100464.47;;;6.49;64.17
55759;BME280;41678;52.126;20.664;2023-03-18T22:22:44;100472.31;;;6.47;64.29
55759;BME280;41678;52.126;20.664;2023-03-18T22:28:04;100472.25;;;6.43;64.33
55759;BME280;41678;52.126;20.664;2023-03-18T22:33:29;100468.75;;;6.41;64.89
55759;BME280;41678;52.126;20.664;2023-03-18T22:38:50;100473.94;;;6.34;64.09
55759;BME280;41678;52.126;20.664;2023-03-18T22:44:19;100471.28;;;6.31;64.72
55759;BME280;41678;52.126;20.664;2023-03-18T22:49:41;100468.63;;;6.25;64.58
55759;BME280;41678;52.126;20.664;2023-03-18T22:55:03;100471.25;;;6.27;64.29
55759;BME280;41678;52.126;20.664;2023-03-18T23:00:37;100476.53;;;6.30;65.38
55759;BME280;41678;52.126;20.664;2023-03-18T23:05:57;100478.19;;;6.21;64.90
55759;BME280;41678;52.126;20.664;2023-03-18T23:11:17;100482.53;;;6.22;65.46
55759;BME280;41678;52.126;20.664;2023-03-18T23:16:37;100481.53;;;6.08;64.38
55759;BME280;41678;52.126;20.664;2023-03-18T23:21:56;100478.88;;;6.06;64.87
55759;BME280;41678;52.126;20.664;2023-03-18T23:27:16;100470.09;;;6.00;65.08
55759;BME280;41678;52.126;20.664;2023-03-18T23:32:38;100470.91;;;5.95;64.79
55759;BME280;41678;52.126;20.664;2023-03-18T23:37:57;100475.25;;;5.92;65.17
55759;BME280;41678;52.126;20.664;2023-03-18T23:43:19;100467.38;;;5.90;66.10
55759;BME280;41678;52.126;20.664;2023-03-18T23:48:39;100463.81;;;5.80;64.70
55759;BME280;41678;52.126;20.664;2023-03-18T23:53:59;100464.63;;;5.78;65.08
55759;BME280;41678;52.126;20.664;2023-03-18T23:59:19;100457.63;;;5.75;65.29
